createdAt,value
2023-11-03T00:01:34.948Z,74.99
2023-11-03T00:04:07.460Z,74.68
2023-11-03T00:06:42.280Z,75.22
2023-11-03T00:09:25.041Z,75.52
2023-11-03T00:11:53.201Z,75.58
2023-11-03T00:14:21.327Z,75.69
2023-11-03T00:16:49.521Z,75.59
2023-11-03T00:19:17.602Z,75.53
2023-11-03T00:21:45.908Z,75.60
2023-11-03T00:24:14.728Z,75.77
2023-11-03T00:26:42.736Z,76.10
2023-11-03T00:29:10.686Z,76.01
2023-11-03T00:31:46.409Z,75.96
2023-11-03T00:34:15.310Z,76.09
2023-11-03T00:36:45.654Z,76.05
2023-11-03T00:39:14.500Z,75.70
2023-11-03T00:41:43.409Z,75.63
2023-11-03T00:44:12.489Z,75.81
2023-11-03T00:46:40.973Z,75.93
2023-11-03T00:49:10.526Z,75.97
2023-11-03T00:51:38.630Z,75.95
2023-11-03T00:54:10.502Z,75.96
2023-11-03T00:56:42.206Z,76.15
2023-11-03T00:59:10.079Z,76.21
2023-11-03T01:01:40.199Z,75.78
2023-11-03T01:04:10.577Z,75.57
2023-11-03T01:06:39.694Z,75.87
2023-11-03T01:09:10.921Z,76.26
2023-11-03T01:11:39.047Z,76.58
2023-11-03T01:14:07.190Z,76.95
2023-11-03T01:16:35.219Z,76.98
2023-11-03T01:19:06.620Z,76.57
2023-11-03T01:21:35.640Z,76.73
2023-11-03T01:24:03.796Z,76.93
2023-11-03T01:26:33.017Z,76.82
2023-11-03T01:29:01.291Z,77.05
2023-11-03T01:31:29.190Z,76.88
2023-11-03T01:33:57.251Z,76.83
2023-11-03T01:36:25.335Z,76.86
2023-11-03T01:38:53.594Z,76.94
2023-11-03T01:41:21.632Z,76.88
2023-11-03T01:44:08.068Z,76.90
2023-11-03T01:46:40.026Z,76.91
2023-11-03T01:49:10.773Z,76.87
2023-11-03T01:51:41.029Z,76.87
2023-11-03T01:54:10.689Z,76.88
2023-11-03T01:56:38.868Z,76.62
2023-11-03T01:59:08.054Z,76.44
2023-11-03T02:01:37.937Z,76.22
2023-11-03T02:04:06.219Z,76.33
2023-11-03T02:06:34.421Z,76.46
2023-11-03T02:09:02.773Z,76.63
2023-11-03T02:11:32.685Z,76.62
2023-11-03T02:14:01.072Z,76.69
2023-11-03T02:16:29.400Z,76.36
2023-11-03T02:18:57.788Z,76.28
2023-11-03T02:21:25.713Z,76.26
2023-11-03T02:23:53.945Z,75.88
2023-11-03T02:26:21.906Z,75.95
2023-11-03T02:28:50.625Z,76.02
2023-11-03T02:31:18.760Z,76.31
2023-11-03T02:33:46.804Z,76.37
2023-11-03T02:36:16.543Z,76.21
2023-11-03T02:38:44.940Z,76.02
2023-11-03T02:41:13.421Z,75.91
2023-11-03T02:43:41.381Z,75.69
2023-11-03T02:46:09.426Z,75.34
2023-11-03T02:48:37.687Z,75.42
2023-11-03T02:51:05.856Z,75.45
2023-11-03T02:53:34.145Z,75.41
2023-11-03T02:56:02.116Z,75.43
2023-11-03T02:58:37.875Z,75.56
2023-11-03T03:01:11.771Z,75.60
2023-11-03T03:03:39.819Z,75.95
2023-11-03T03:06:08.063Z,75.86
2023-11-03T03:08:36.068Z,75.76
2023-11-03T03:11:05.056Z,76.05
2023-11-03T03:13:33.204Z,75.91
2023-11-03T03:16:01.234Z,75.97
2023-11-03T03:18:29.306Z,76.17
2023-11-03T03:20:57.280Z,76.27
2023-11-03T03:23:25.145Z,76.34
2023-11-03T03:25:53.055Z,76.37
2023-11-03T03:28:21.332Z,76.27
2023-11-03T03:30:49.273Z,76.53
2023-11-03T03:33:18.171Z,76.75
2023-11-03T03:35:46.243Z,76.97
2023-11-03T03:38:14.241Z,76.80
2023-11-03T03:40:42.232Z,76.66
2023-11-03T03:43:10.364Z,76.66
2023-11-03T03:45:38.501Z,76.88
2023-11-03T03:48:06.882Z,77.01
2023-11-03T03:50:34.724Z,76.88
2023-11-03T03:53:02.941Z,77.00
2023-11-03T03:55:30.983Z,77.10
2023-11-03T03:57:59.020Z,77.23
2023-11-03T04:00:27.162Z,77.30
2023-11-03T04:02:55.691Z,77.33
2023-11-03T04:05:23.797Z,77.33
2023-11-03T04:07:51.791Z,77.46
2023-11-03T04:10:19.645Z,77.82
2023-11-03T04:12:47.790Z,77.72
2023-11-03T04:15:16.284Z,77.65
2023-11-03T04:17:44.283Z,77.54
2023-11-03T04:20:12.353Z,77.76
2023-11-03T04:22:40.609Z,77.79
2023-11-03T04:25:08.891Z,78.15
2023-11-03T04:27:36.812Z,78.37
2023-11-03T04:30:05.522Z,78.61
2023-11-03T04:32:33.847Z,78.82
2023-11-03T04:35:01.974Z,79.07
2023-11-03T04:37:29.923Z,79.35
2023-11-03T04:39:57.937Z,79.32
2023-11-03T04:42:26.120Z,79.27
2023-11-03T04:44:54.065Z,79.12
2023-11-03T04:47:22.475Z,78.94
2023-11-03T04:49:50.881Z,78.84
2023-11-03T04:52:18.903Z,78.85
2023-11-03T04:54:46.975Z,78.57
2023-11-03T04:57:14.927Z,78.49
2023-11-03T04:59:42.841Z,78.62
2023-11-03T05:02:11.460Z,78.49
2023-11-03T05:04:39.442Z,78.42
2023-11-03T05:07:08.232Z,78.70
2023-11-03T05:09:38.745Z,78.62
2023-11-03T05:12:07.041Z,78.70
2023-11-03T05:14:34.920Z,79.05
2023-11-03T05:17:03.069Z,79.05
2023-11-03T05:19:31.256Z,79.00
2023-11-03T05:21:59.596Z,78.78
2023-11-03T05:24:27.502Z,78.97
2023-11-03T05:26:55.696Z,79.00
2023-11-03T05:29:28.076Z,78.79
2023-11-03T05:31:57.344Z,78.63
2023-11-03T05:34:26.347Z,78.50
2023-11-03T05:36:54.579Z,78.55
2023-11-03T05:39:23.316Z,78.84
2023-11-03T05:41:51.255Z,78.77
2023-11-03T05:44:19.655Z,78.64
2023-11-03T05:46:47.580Z,78.56
2023-11-03T05:49:15.762Z,78.39
2023-11-03T05:51:43.979Z,78.55
2023-11-03T05:54:11.909Z,78.72
2023-11-03T05:56:39.853Z,78.57
2023-11-03T05:59:07.988Z,78.57
2023-11-03T06:01:36.927Z,78.29
2023-11-03T06:04:07.250Z,78.44
2023-11-03T06:06:39.828Z,78.48
2023-11-03T06:09:08.492Z,78.29
2023-11-03T06:11:37.429Z,78.15
2023-11-03T06:14:05.642Z,78.12
2023-11-03T06:16:35.961Z,78.26
2023-11-03T06:19:05.235Z,78.32
2023-11-03T06:21:33.325Z,78.47
2023-11-03T06:24:01.517Z,78.65
2023-11-03T06:26:29.673Z,78.45
2023-11-03T06:28:57.992Z,78.40
2023-11-03T06:31:26.428Z,78.44
2023-11-03T06:33:54.443Z,78.37
2023-11-03T06:36:22.602Z,78.36
2023-11-03T06:38:50.474Z,78.13
2023-11-03T06:41:18.523Z,78.19
2023-11-03T06:43:48.924Z,78.28
2023-11-03T06:46:17.442Z,78.10
2023-11-03T06:48:45.720Z,78.11
2023-11-03T06:51:14.084Z,78.13
2023-11-03T06:53:42.056Z,77.90
2023-11-03T06:56:09.968Z,77.89
2023-11-03T06:58:38.580Z,77.50
2023-11-03T07:01:07.756Z,77.38
2023-11-03T07:03:36.106Z,77.13
2023-11-03T07:06:05.609Z,76.88
2023-11-03T07:08:34.280Z,76.77
2023-11-03T07:11:02.425Z,76.75
2023-11-03T07:13:31.087Z,76.58
2023-11-03T07:15:59.218Z,76.36
2023-11-03T07:18:27.888Z,75.82
2023-11-03T07:20:55.882Z,75.24
2023-11-03T07:23:23.824Z,74.82
2023-11-03T07:25:57.402Z,74.44
2023-11-03T07:28:25.841Z,74.39
2023-11-03T07:30:54.507Z,74.05
2023-11-03T07:33:23.452Z,73.84
2023-11-03T07:35:52.009Z,74.08
2023-11-03T07:38:23.008Z,73.82
2023-11-03T07:40:51.452Z,73.47
2023-11-03T07:43:19.371Z,73.19
2023-11-03T07:45:47.669Z,73.23
2023-11-03T07:48:16.568Z,73.17
2023-11-03T07:50:44.725Z,72.91
2023-11-03T07:53:12.689Z,72.64
2023-11-03T07:55:41.092Z,72.24
2023-11-03T07:58:09.536Z,72.08
2023-11-03T08:00:37.504Z,71.66
2023-11-03T08:03:08.892Z,71.67
2023-11-03T08:05:39.369Z,71.54
2023-11-03T08:08:08.315Z,71.30
2023-11-03T08:10:36.880Z,71.21
2023-11-03T08:13:06.349Z,71.72
2023-11-03T08:15:34.432Z,71.72
2023-11-03T08:18:03.427Z,71.50
2023-11-03T08:20:31.479Z,71.71
2023-11-03T08:22:59.812Z,71.95
2023-11-03T08:25:29.100Z,72.17
2023-11-03T08:27:57.528Z,72.27
2023-11-03T08:30:25.488Z,72.72
2023-11-03T08:32:53.599Z,72.71
2023-11-03T08:35:23.339Z,72.79
2023-11-03T08:37:56.626Z,72.74
2023-11-03T08:40:25.513Z,72.95
2023-11-03T08:42:54.850Z,72.82
2023-11-03T08:45:24.269Z,72.65
2023-11-03T08:47:53.619Z,72.54
2023-11-03T08:50:22.791Z,72.15
2023-11-03T08:52:50.763Z,71.72
2023-11-03T08:55:19.075Z,71.32
2023-11-03T08:57:48.234Z,70.89
2023-11-03T09:00:17.967Z,70.67
2023-11-03T09:02:47.945Z,70.36
2023-11-03T09:05:16.799Z,70.05
2023-11-03T09:07:45.839Z,69.69
2023-11-03T09:10:14.434Z,69.41
2023-11-03T09:12:43.022Z,69.23
2023-11-03T09:15:11.884Z,69.10
2023-11-03T09:17:45.802Z,69.09
2023-11-03T09:20:21.326Z,68.79
2023-11-03T09:22:49.716Z,68.79
2023-11-03T09:25:18.539Z,68.41
2023-11-03T09:27:48.051Z,68.55
2023-11-03T09:30:17.093Z,68.05
2023-11-03T09:32:48.931Z,67.77
2023-11-03T09:35:17.624Z,67.77
2023-11-03T09:37:45.596Z,67.30
2023-11-03T09:40:19.949Z,67.10
2023-11-03T09:42:48.456Z,66.93
2023-11-03T09:45:20.736Z,67.06
2023-11-03T09:47:52.962Z,66.69
2023-11-03T09:50:21.978Z,66.88
2023-11-03T09:52:54.851Z,67.10
2023-11-03T09:55:27.425Z,67.37
2023-11-03T09:58:03.094Z,67.49
2023-11-03T10:00:31.113Z,67.44
2023-11-03T10:02:59.464Z,67.57
2023-11-03T10:05:31.175Z,67.61
2023-11-03T10:08:05.333Z,67.46
2023-11-03T10:10:38.422Z,67.64
2023-11-03T10:13:11.996Z,67.73
2023-11-03T10:15:41.491Z,67.69
2023-11-03T10:18:10.770Z,67.51
2023-11-03T10:20:43.052Z,67.55
2023-11-03T10:23:11.820Z,67.62
2023-11-03T10:25:40.446Z,67.76
2023-11-03T10:28:09.227Z,67.76
2023-11-03T10:30:39.292Z,67.67
2023-11-03T10:33:08.076Z,67.80
2023-11-03T10:35:36.756Z,67.73
2023-11-03T10:38:06.481Z,67.71
2023-11-03T10:40:34.737Z,67.88
2023-11-03T10:43:06.946Z,67.86
2023-11-03T10:45:39.562Z,67.89
2023-11-03T10:48:23.301Z,68.09
2023-11-03T10:51:10.423Z,68.14
2023-11-03T10:54:02.424Z,68.09
2023-11-03T10:56:48.542Z,68.03
2023-11-03T10:59:30.130Z,68.03
2023-11-03T11:02:09.450Z,67.89
2023-11-03T11:04:56.736Z,67.89
2023-11-03T11:07:26.618Z,67.88
2023-11-03T11:09:56.439Z,67.89
2023-11-03T11:12:44.363Z,68.03
2023-11-03T11:15:18.764Z,68.24
2023-11-03T11:17:50.132Z,68.24
2023-11-03T11:20:32.376Z,68.30
2023-11-03T11:23:08.803Z,68.47
2023-11-03T11:25:38.037Z,68.28
2023-11-03T11:28:06.134Z,68.22
2023-11-03T11:30:34.772Z,67.88
2023-11-03T11:33:03.008Z,67.38
2023-11-03T11:35:39.760Z,67.33
2023-11-03T11:38:08.004Z,67.05
2023-11-03T11:40:37.278Z,66.96
2023-11-03T11:43:18.357Z,66.53
2023-11-03T11:45:53.405Z,66.47
2023-11-03T11:48:25.112Z,66.05
2023-11-03T11:50:53.770Z,65.81
2023-11-03T11:53:22.558Z,65.79
2023-11-03T11:55:51.969Z,65.62
2023-11-03T11:58:20.251Z,65.57
2023-11-03T12:00:48.334Z,65.03
2023-11-03T12:03:19.615Z,64.47
2023-11-03T12:05:48.575Z,64.31
2023-11-03T12:08:16.654Z,64.28
2023-11-03T12:10:56.456Z,64.36
2023-11-03T12:13:25.563Z,64.46
2023-11-03T12:15:53.829Z,64.29
2023-11-03T12:18:22.044Z,64.20
2023-11-03T12:21:05.658Z,64.24
2023-11-03T12:23:35.458Z,64.42
2023-11-03T12:26:04.685Z,64.02
2023-11-03T12:28:33.345Z,63.81
2023-11-03T12:31:05.665Z,63.75
2023-11-03T12:33:40.162Z,63.62
2023-11-03T12:36:08.680Z,63.40
2023-11-03T12:38:47.812Z,63.22
2023-11-03T12:41:17.497Z,63.09
2023-11-03T12:43:55.008Z,62.74
2023-11-03T12:46:23.650Z,62.75
2023-11-03T12:49:10.215Z,62.70
2023-11-03T12:51:43.857Z,62.76
2023-11-03T12:54:19.861Z,62.71
2023-11-03T12:56:51.026Z,62.74
2023-11-03T12:59:23.383Z,62.58
2023-11-03T13:01:53.817Z,62.51
2023-11-03T13:04:21.955Z,62.66
2023-11-03T13:06:50.958Z,62.73
2023-11-03T13:09:25.418Z,62.89
2023-11-03T13:11:53.849Z,62.56
2023-11-03T13:14:21.750Z,62.39
2023-11-03T13:16:49.741Z,62.22
2023-11-03T13:19:20.810Z,62.05
2023-11-03T13:21:48.849Z,62.10
2023-11-03T13:24:17.413Z,62.29
2023-11-03T13:26:45.597Z,62.03
2023-11-03T13:29:14.174Z,62.10
2023-11-03T13:31:43.297Z,62.03
2023-11-03T13:34:13.722Z,62.28
2023-11-03T13:36:42.918Z,62.41
2023-11-03T13:39:12.955Z,62.39
2023-11-03T13:41:41.251Z,62.28
2023-11-03T13:44:09.451Z,62.48
2023-11-03T13:46:37.745Z,62.55
2023-11-03T13:49:06.385Z,62.60
2023-11-03T13:51:34.492Z,62.40
2023-11-03T13:54:04.111Z,62.27
2023-11-03T13:56:32.125Z,62.55
2023-11-03T13:59:00.182Z,62.63
2023-11-03T14:01:29.181Z,62.93
2023-11-03T14:03:57.360Z,63.03
2023-11-03T14:06:25.525Z,63.20
2023-11-03T14:08:54.421Z,63.59
2023-11-03T14:11:25.356Z,63.64
2023-11-03T14:13:56.137Z,63.58
2023-11-03T14:16:24.250Z,63.41
2023-11-03T14:18:53.303Z,63.30
2023-11-03T14:21:25.716Z,63.34
2023-11-03T14:23:56.647Z,63.37
2023-11-03T14:26:25.183Z,63.05
2023-11-03T14:28:53.118Z,63.19
2023-11-03T14:31:21.327Z,63.25
2023-11-03T14:34:16.463Z,63.14
2023-11-03T14:36:46.265Z,63.19
2023-11-03T14:39:15.986Z,63.53
2023-11-03T14:41:46.359Z,63.56
2023-11-03T14:44:16.641Z,63.40
2023-11-03T14:46:50.539Z,63.41
2023-11-03T14:49:20.888Z,63.37
2023-11-03T14:51:49.092Z,63.17
2023-11-03T14:54:16.972Z,63.18
2023-11-03T14:56:46.316Z,63.59
2023-11-03T14:59:14.318Z,63.71
2023-11-03T15:01:42.386Z,63.32
2023-11-03T15:04:10.549Z,63.10
2023-11-03T15:06:38.505Z,63.12
2023-11-03T15:09:06.451Z,63.32
2023-11-03T15:11:34.462Z,63.32
2023-11-03T15:14:02.448Z,63.24
2023-11-03T15:16:31.124Z,63.05
2023-11-03T15:19:00.510Z,62.80
2023-11-03T15:21:28.623Z,62.65
2023-11-03T15:23:56.744Z,62.46
2023-11-03T15:26:25.794Z,62.47
2023-11-03T15:28:55.030Z,62.57
2023-11-03T15:31:22.971Z,62.79
2023-11-03T15:33:51.045Z,62.87
2023-11-03T15:36:20.360Z,62.87
2023-11-03T15:38:52.069Z,63.08
2023-11-03T15:41:20.140Z,63.04
2023-11-03T15:43:48.331Z,63.11
2023-11-03T15:46:18.521Z,63.36
2023-11-03T15:48:46.710Z,63.36
2023-11-03T15:51:14.719Z,63.38
2023-11-03T15:53:44.061Z,63.51
2023-11-03T15:56:15.244Z,63.54
2023-11-03T15:58:43.247Z,63.57
2023-11-03T16:01:11.361Z,63.70
2023-11-03T16:03:40.060Z,63.67
2023-11-03T16:06:08.549Z,63.78
2023-11-03T16:08:39.302Z,63.70
2023-11-03T16:11:09.250Z,63.64
2023-11-03T16:13:37.527Z,63.73
2023-11-03T16:16:08.331Z,63.72
2023-11-03T16:18:36.413Z,63.91
2023-11-03T16:21:05.271Z,63.80
2023-11-03T16:23:35.858Z,63.79
2023-11-03T16:26:04.070Z,63.88
2023-11-03T16:28:32.574Z,64.07
2023-11-03T16:31:00.568Z,64.26
2023-11-03T16:33:29.163Z,64.33
2023-11-03T16:35:58.331Z,64.28
2023-11-03T16:38:27.761Z,64.20
2023-11-03T16:40:55.742Z,64.28
2023-11-03T16:43:23.736Z,64.46
2023-11-03T16:45:51.682Z,64.58
2023-11-03T16:48:26.122Z,64.43
2023-11-03T16:50:55.342Z,64.63
2023-11-03T16:53:29.615Z,64.64
2023-11-03T16:55:59.594Z,64.72
2023-11-03T16:58:27.530Z,64.80
2023-11-03T17:00:55.883Z,64.88
2023-11-03T17:03:24.247Z,64.68
2023-11-03T17:05:52.344Z,64.74
2023-11-03T17:08:21.891Z,64.64
2023-11-03T17:10:51.408Z,64.74
2023-11-03T17:13:20.057Z,64.80
2023-11-03T17:15:48.155Z,64.66
2023-11-03T17:18:16.970Z,64.63
2023-11-03T17:20:45.633Z,64.48
2023-11-03T17:23:14.381Z,64.58
2023-11-03T17:25:42.766Z,64.42
2023-11-03T17:28:14.125Z,64.36
2023-11-03T17:30:42.221Z,64.16
2023-11-03T17:33:12.472Z,64.32
2023-11-03T17:35:42.307Z,64.16
2023-11-03T17:38:10.949Z,64.15
2023-11-03T17:40:42.308Z,63.94
2023-11-03T17:43:10.479Z,63.72
2023-11-03T17:45:42.111Z,63.59
2023-11-03T17:48:10.420Z,63.49
2023-11-03T17:50:41.226Z,63.41
2023-11-03T17:53:10.337Z,63.46
2023-11-03T17:55:38.334Z,63.43
2023-11-03T17:58:07.647Z,63.26
2023-11-03T18:00:38.740Z,63.29
2023-11-03T18:03:11.133Z,63.22
2023-11-03T18:05:44.699Z,63.34
2023-11-03T18:08:15.295Z,63.32
2023-11-03T18:10:45.988Z,63.29
2023-11-03T18:13:16.888Z,63.16
2023-11-03T18:15:45.093Z,63.31
2023-11-03T18:18:13.286Z,63.23
2023-11-03T18:20:42.293Z,63.30
2023-11-03T18:23:14.431Z,63.38
2023-11-03T18:25:43.366Z,63.95
2023-11-03T18:28:12.545Z,64.81
2023-11-03T18:30:40.863Z,65.95
2023-11-03T18:33:09.297Z,67.07
2023-11-03T18:35:40.863Z,67.81
2023-11-03T18:38:08.790Z,68.64
2023-11-03T18:40:38.631Z,69.54
2023-11-03T18:43:07.407Z,70.25
2023-11-03T18:45:40.538Z,70.79
2023-11-03T18:48:09.725Z,71.76
2023-11-03T18:57:05.109Z,73.38
2023-11-03T19:00:14.897Z,73.56
2023-11-03T19:04:46.978Z,73.92
2023-11-03T19:07:30.578Z,74.23
2023-11-03T19:09:40.610Z,74.76
2023-11-03T19:12:15.713Z,75.18
2023-11-03T19:14:43.684Z,75.06
2023-11-03T19:17:11.555Z,75.02
2023-11-03T19:19:41.036Z,75.30
2023-11-03T19:22:11.145Z,75.33
2023-11-03T19:24:44.627Z,75.36
2023-11-03T19:27:22.729Z,75.47
2023-11-03T19:29:53.521Z,75.51
2023-11-03T19:32:22.295Z,75.55
2023-11-03T19:34:55.444Z,75.61
2023-11-03T19:37:24.013Z,75.74
2023-11-03T19:39:52.464Z,75.70
2023-11-03T19:42:21.404Z,75.89
2023-11-03T19:44:49.905Z,75.92
2023-11-03T19:47:18.111Z,75.99
2023-11-03T19:49:51.496Z,75.79
2023-11-03T19:52:21.303Z,75.71
2023-11-03T19:54:49.537Z,76.01
2023-11-03T19:57:18.142Z,76.17
2023-11-03T19:59:48.675Z,76.08
2023-11-03T20:02:22.503Z,76.30
2023-11-03T20:04:50.456Z,76.16
2023-11-03T20:07:20.871Z,76.09
2023-11-03T20:09:48.906Z,76.06
2023-11-03T20:12:16.887Z,75.88
2023-11-03T20:14:45.379Z,75.87
2023-11-03T20:17:13.367Z,75.90
2023-11-03T20:19:41.971Z,76.03
2023-11-03T20:22:13.284Z,76.08
2023-11-03T20:24:41.574Z,76.32
2023-11-03T20:27:09.869Z,76.50
2023-11-03T20:29:38.062Z,76.58
2023-11-03T20:32:11.557Z,76.71
2023-11-03T20:34:40.234Z,76.93
2023-11-03T20:37:08.303Z,76.75
2023-11-03T20:39:36.382Z,76.75
2023-11-03T20:42:10.281Z,76.93
2023-11-03T20:44:41.372Z,76.85
2023-11-03T20:47:09.424Z,76.94
2023-11-03T20:49:37.550Z,77.01
2023-11-03T20:52:08.267Z,77.07
2023-11-03T20:54:40.593Z,77.02
2023-11-03T20:57:09.039Z,77.75
2023-11-03T20:59:37.212Z,77.98
2023-11-03T21:02:08.849Z,78.16
2023-11-03T21:04:39.780Z,78.28
2023-11-03T21:07:11.924Z,78.40
2023-11-03T21:09:40.027Z,78.24
2023-11-03T21:12:08.986Z,78.41
2023-11-03T21:14:37.857Z,78.54
2023-11-03T21:17:07.898Z,78.51
2023-11-03T21:19:40.106Z,78.72
2023-11-03T21:22:08.504Z,78.94
2023-11-03T21:24:36.779Z,78.99
2023-11-03T21:27:05.927Z,78.85
2023-11-03T21:29:34.053Z,78.97
2023-11-03T21:32:02.187Z,78.85
2023-11-03T21:34:31.470Z,78.81
2023-11-03T21:36:59.535Z,78.88
2023-11-03T21:39:31.409Z,78.99
2023-11-03T21:41:59.900Z,79.11
2023-11-03T21:44:30.584Z,79.39
2023-11-03T21:46:58.753Z,79.38
2023-11-03T21:49:26.786Z,79.55
2023-11-03T21:51:54.894Z,79.48
2023-11-03T21:54:22.788Z,79.61
2023-11-03T21:56:50.677Z,79.59
2023-11-03T21:59:18.708Z,80.07
2023-11-03T22:01:48.734Z,80.13
2023-11-03T22:04:16.872Z,80.05
2023-11-03T22:06:46.969Z,80.23
2023-11-03T22:09:15.698Z,80.46
2023-11-03T22:11:44.628Z,80.97
2023-11-03T22:14:15.804Z,80.84
2023-11-03T22:16:43.807Z,81.08
2023-11-03T22:19:11.887Z,80.93
2023-11-03T22:21:39.859Z,80.79
2023-11-03T22:24:10.539Z,80.96
2023-11-03T22:26:44.154Z,81.42
2023-11-03T22:29:13.440Z,81.32
2023-11-03T22:31:48.192Z,80.84
2023-11-03T22:34:18.909Z,80.15
2023-11-03T22:36:47.232Z,80.14
2023-11-03T22:39:18.969Z,80.55
2023-11-03T22:41:49.003Z,80.72
2023-11-03T22:44:16.997Z,81.02
2023-11-03T22:46:44.898Z,80.78
2023-11-03T22:49:13.104Z,80.52
2023-11-03T22:51:41.674Z,80.26
2023-11-03T22:54:09.703Z,80.42
2023-11-03T22:56:37.635Z,80.75
2023-11-03T22:59:05.686Z,80.75
2023-11-03T23:01:41.295Z,80.81
2023-11-03T23:04:11.292Z,80.52
2023-11-03T23:06:41.169Z,81.07
2023-11-03T23:09:12.925Z,81.42
2023-11-03T23:11:41.625Z,81.41
2023-11-03T23:14:10.017Z,81.36
2023-11-03T23:16:38.145Z,81.62
2023-11-03T23:19:06.771Z,81.41
2023-11-03T23:21:35.042Z,81.23
2023-11-03T23:24:03.369Z,80.81
2023-11-03T23:26:31.217Z,80.80
2023-11-03T23:28:59.218Z,80.88
2023-11-03T23:31:27.996Z,81.11
2023-11-03T23:33:56.253Z,81.54
2023-11-03T23:36:27.026Z,81.99
2023-11-03T23:38:55.643Z,82.28
2023-11-03T23:41:23.718Z,82.33
2023-11-03T23:43:54.391Z,82.13
2023-11-03T23:46:23.126Z,82.55
2023-11-03T23:48:52.359Z,82.46
2023-11-03T23:51:20.555Z,81.92
2023-11-03T23:53:48.669Z,81.74
2023-11-03T23:56:17.384Z,82.21
2023-11-03T23:58:48.741Z,82.39
